Terminal Aerodrome Forecast
Issued by NWS Northern Indiana

Home | Current Version | Previous Version | Graphics & Text | Print | Product List | Glossary On
Versions: 1 2 3 4 5 6 7 8 9 10 11 12 13 14 15 16 17 18 19
000
FTUS43 KIWX 181120
TAFFWA
TAF
KFWA 181120Z 1812/1912 VRB03KT P6SM VCSH OVC070
      TEMPO 1812/1815 5SM -SHRA BR BKN035
     FM181500 03005KT P6SM BKN035
     FM181800 04005KT P6SM SCT040 SCT090
     FM182300 05005KT P6SM BKN110
     FM190600 06005KT 3SM BR BKN020
     FM190900 07005KT 3SM BR BKN010=

USA.gov is the U.S. government's official web portal to all federal, state and local government web resources and services.